KFBR

Fort Bridger Airport

Fort Bridger, Wyoming, USA
METAR KFBR 230804Z AUTO 00000KT 7SM SCT046 SCT080 M17/M18 A2993 RMK AO2
Observed Flight Rules
Feb-23 @ 08:04 UTC (2 hours ago) Visual Flight Rules
Wind Visibility Clouds
Calm 7 miles
  • Scattered at 4,600' AGL
  • Scattered at 8,000' AGL
Temperatures Readings
Current -17°C / 1°F
Dewpoint -18°C / -0°F
Humidity 92%
Altimeter 29.93" Hg
Pressure 1014 hPa
Elevation 2144
METAR KFBR 230804Z AUTO 00000KT 7SM SCT046 SCT080 M17/M18 A2993 RMK AO2
Observed Flight Rules
Feb-23 @ 08:04 UTC
(2 hours ago)
VFR
Wind Visibility
Calm 7 miles
Clouds
  • Scattered at 4,600' AGL
  • Scattered at 8,000' AGL
Temperature Dewpoint
-17°C / 1°F -18°C / -0°F
Humidity Altimeter Pressure
92% 29.93" Hg 1014 hPa